sensor_id;sensor_type;location;lat;lon;timestamp;temperature;humidity
3069;DHT22;1545;51.728;8.796;2022-12-18T00:01:20;-6.80;97.80
3069;DHT22;1545;51.728;8.796;2022-12-18T00:03:46;-6.80;97.60
3069;DHT22;1545;51.728;8.796;2022-12-18T00:06:12;-6.80;97.50
3069;DHT22;1545;51.728;8.796;2022-12-18T00:08:39;-6.60;97.70
3069;DHT22;1545;51.728;8.796;2022-12-18T00:11:07;-6.40;97.70
3069;DHT22;1545;51.728;8.796;2022-12-18T00:13:32;-6.30;97.60
3069;DHT22;1545;51.728;8.796;2022-12-18T00:16:03;-6.30;97.20
3069;DHT22;1545;51.728;8.796;2022-12-18T00:18:29;-6.30;97.20
3069;DHT22;1545;51.728;8.796;2022-12-18T00:20:59;-6.30;96.80
3069;DHT22;1545;51.728;8.796;2022-12-18T00:23:25;-6.40;96.80
3069;DHT22;1545;51.728;8.796;2022-12-18T00:25:51;-6.30;96.70
3069;DHT22;1545;51.728;8.796;2022-12-18T00:28:17;-6.30;96.50
3069;DHT22;1545;51.728;8.796;2022-12-18T00:30:42;-6.40;96.30
3069;DHT22;1545;51.728;8.796;2022-12-18T00:33:08;-6.40;96.50
3069;DHT22;1545;51.728;8.796;2022-12-18T00:35:33;-6.40;96.40
3069;DHT22;1545;51.728;8.796;2022-12-18T00:37:59;-6.50;96.50
3069;DHT22;1545;51.728;8.796;2022-12-18T00:40:24;-6.40;96.70
3069;DHT22;1545;51.728;8.796;2022-12-18T00:42:50;-6.30;96.80
3069;DHT22;1545;51.728;8.796;2022-12-18T00:45:26;-6.30;96.90
3069;DHT22;1545;51.728;8.796;2022-12-18T00:47:52;-6.20;96.80
3069;DHT22;1545;51.728;8.796;2022-12-18T00:50:18;-6.20;96.80
3069;DHT22;1545;51.728;8.796;2022-12-18T00:52:44;-6.00;97.00
3069;DHT22;1545;51.728;8.796;2022-12-18T00:55:10;-6.00;97.10
3069;DHT22;1545;51.728;8.796;2022-12-18T00:57:36;-5.80;97.10
3069;DHT22;1545;51.728;8.796;2022-12-18T01:00:03;-5.80;97.00
3069;DHT22;1545;51.728;8.796;2022-12-18T01:02:29;-5.80;96.90
3069;DHT22;1545;51.728;8.796;2022-12-18T01:04:54;-5.80;96.60
3069;DHT22;1545;51.728;8.796;2022-12-18T01:07:20;-5.70;96.60
3069;DHT22;1545;51.728;8.796;2022-12-18T01:09:45;-5.60;96.80
3069;DHT22;1545;51.728;8.796;2022-12-18T01:12:11;-5.70;96.40
3069;DHT22;1545;51.728;8.796;2022-12-18T01:14:37;-5.70;96.30
3069;DHT22;1545;51.728;8.796;2022-12-18T01:17:03;-5.70;96.30
3069;DHT22;1545;51.728;8.796;2022-12-18T01:19:29;-5.60;96.30
3069;DHT22;1545;51.728;8.796;2022-12-18T01:21:55;-5.50;96.50
3069;DHT22;1545;51.728;8.796;2022-12-18T01:24:20;-5.40;96.80
3069;DHT22;1545;51.728;8.796;2022-12-18T01:26:46;-5.40;96.60
3069;DHT22;1545;51.728;8.796;2022-12-18T01:29:11;-5.30;96.60
3069;DHT22;1545;51.728;8.796;2022-12-18T01:31:37;-5.20;96.40
3069;DHT22;1545;51.728;8.796;2022-12-18T01:34:04;-5.20;96.40
3069;DHT22;1545;51.728;8.796;2022-12-18T01:36:33;-5.10;96.20
3069;DHT22;1545;51.728;8.796;2022-12-18T01:39:09;-5.10;96.10
3069;DHT22;1545;51.728;8.796;2022-12-18T01:41:35;-5.10;96.10
3069;DHT22;1545;51.728;8.796;2022-12-18T01:47:39;-5.00;95.90
3069;DHT22;1545;51.728;8.796;2022-12-18T01:53:02;-4.70;96.00
3069;DHT22;1545;51.728;8.796;2022-12-18T01:55:31;-4.60;95.40
3069;DHT22;1545;51.728;8.796;2022-12-18T01:57:58;-4.50;95.00
3069;DHT22;1545;51.728;8.796;2022-12-18T02:00:26;-4.50;94.90
3069;DHT22;1545;51.728;8.796;2022-12-18T02:02:54;-4.50;95.00
3069;DHT22;1545;51.728;8.796;2022-12-18T02:13:36;-4.40;94.60
3069;DHT22;1545;51.728;8.796;2022-12-18T02:18:56;-4.40;94.40
3069;DHT22;1545;51.728;8.796;2022-12-18T02:21:35;-4.30;94.30
3069;DHT22;1545;51.728;8.796;2022-12-18T02:26:55;-4.20;94.30
3069;DHT22;1545;51.728;8.796;2022-12-18T02:29:42;-4.10;94.10
3069;DHT22;1545;51.728;8.796;2022-12-18T02:32:15;-4.10;93.90
3069;DHT22;1545;51.728;8.796;2022-12-18T02:34:43;-4.20;93.80
3069;DHT22;1545;51.728;8.796;2022-12-18T02:37:13;-4.30;93.90
3069;DHT22;1545;51.728;8.796;2022-12-18T02:39:42;-4.30;94.10
3069;DHT22;1545;51.728;8.796;2022-12-18T02:42:09;-4.40;94.40
3069;DHT22;1545;51.728;8.796;2022-12-18T02:44:46;-4.40;94.40
3069;DHT22;1545;51.728;8.796;2022-12-18T02:47:14;-4.40;94.50
3069;DHT22;1545;51.728;8.796;2022-12-18T02:55:28;-4.40;94.30
3069;DHT22;1545;51.728;8.796;2022-12-18T02:58:05;-4.50;94.40
3069;DHT22;1545;51.728;8.796;2022-12-18T03:01:18;-4.60;94.40
3069;DHT22;1545;51.728;8.796;2022-12-18T03:04:09;-4.60;94.60
3069;DHT22;1545;51.728;8.796;2022-12-18T03:06:43;-4.70;94.80
3069;DHT22;1545;51.728;8.796;2022-12-18T03:09:14;-4.70;95.00
3069;DHT22;1545;51.728;8.796;2022-12-18T03:11:44;-4.70;95.20
3069;DHT22;1545;51.728;8.796;2022-12-18T03:14:32;-4.70;94.90
3069;DHT22;1545;51.728;8.796;2022-12-18T03:17:02;-4.80;94.90
3069;DHT22;1545;51.728;8.796;2022-12-18T03:19:31;-4.80;94.90
3069;DHT22;1545;51.728;8.796;2022-12-18T03:21:58;-4.90;95.10
3069;DHT22;1545;51.728;8.796;2022-12-18T03:24:27;-4.90;95.20
3069;DHT22;1545;51.728;8.796;2022-12-18T03:26:58;-4.90;95.10
3069;DHT22;1545;51.728;8.796;2022-12-18T03:29:27;-4.90;95.10
3069;DHT22;1545;51.728;8.796;2022-12-18T03:32:04;-4.90;95.00
3069;DHT22;1545;51.728;8.796;2022-12-18T03:34:32;-4.90;95.00
3069;DHT22;1545;51.728;8.796;2022-12-18T03:37:01;-4.90;95.10
3069;DHT22;1545;51.728;8.796;2022-12-18T03:39:27;-4.90;95.20
3069;DHT22;1545;51.728;8.796;2022-12-18T03:44:45;-5.00;94.90
3069;DHT22;1545;51.728;8.796;2022-12-18T03:47:28;-5.00;95.10
3069;DHT22;1545;51.728;8.796;2022-12-18T03:55:09;-5.00;95.00
3069;DHT22;1545;51.728;8.796;2022-12-18T03:57:37;-5.10;95.00
3069;DHT22;1545;51.728;8.796;2022-12-18T04:00:14;-5.10;94.90
3069;DHT22;1545;51.728;8.796;2022-12-18T04:02:45;-5.10;95.00
3069;DHT22;1545;51.728;8.796;2022-12-18T04:05:14;-5.20;95.20
3069;DHT22;1545;51.728;8.796;2022-12-18T04:07:41;-5.20;95.30
3069;DHT22;1545;51.728;8.796;2022-12-18T04:10:12;-5.20;95.40
3069;DHT22;1545;51.728;8.796;2022-12-18T04:12:38;-5.10;95.60
3069;DHT22;1545;51.728;8.796;2022-12-18T04:15:04;-5.00;95.60
3069;DHT22;1545;51.728;8.796;2022-12-18T04:17:30;-4.90;95.50
3069;DHT22;1545;51.728;8.796;2022-12-18T04:19:55;-4.90;95.40
3069;DHT22;1545;51.728;8.796;2022-12-18T04:22:21;-4.90;95.40
3069;DHT22;1545;51.728;8.796;2022-12-18T04:24:47;-4.80;95.30
3069;DHT22;1545;51.728;8.796;2022-12-18T04:27:12;-4.80;95.20
3069;DHT22;1545;51.728;8.796;2022-12-18T04:29:38;-4.80;95.30
3069;DHT22;1545;51.728;8.796;2022-12-18T04:32:04;-4.80;95.30
3069;DHT22;1545;51.728;8.796;2022-12-18T04:34:29;-4.70;95.30
3069;DHT22;1545;51.728;8.796;2022-12-18T04:36:55;-4.80;95.20
3069;DHT22;1545;51.728;8.796;2022-12-18T04:39:21;-4.80;95.10
3069;DHT22;1545;51.728;8.796;2022-12-18T04:41:47;-4.80;95.20
3069;DHT22;1545;51.728;8.796;2022-12-18T04:44:13;-4.90;95.20
3069;DHT22;1545;51.728;8.796;2022-12-18T04:46:38;-4.90;95.30
3069;DHT22;1545;51.728;8.796;2022-12-18T04:49:04;-4.90;95.10
3069;DHT22;1545;51.728;8.796;2022-12-18T04:51:29;-5.00;95.00
3069;DHT22;1545;51.728;8.796;2022-12-18T04:53:55;-5.10;94.90
3069;DHT22;1545;51.728;8.796;2022-12-18T04:56:21;-5.10;94.70
3069;DHT22;1545;51.728;8.796;2022-12-18T04:58:46;-5.20;95.00
3069;DHT22;1545;51.728;8.796;2022-12-18T05:01:14;-5.20;95.30
3069;DHT22;1545;51.728;8.796;2022-12-18T05:03:40;-5.30;95.30
3069;DHT22;1545;51.728;8.796;2022-12-18T05:06:07;-5.30;95.30
3069;DHT22;1545;51.728;8.796;2022-12-18T05:08:33;-5.40;95.20
3069;DHT22;1545;51.728;8.796;2022-12-18T05:11:00;-5.40;95.40
3069;DHT22;1545;51.728;8.796;2022-12-18T05:13:26;-5.50;95.30
3069;DHT22;1545;51.728;8.796;2022-12-18T05:15:52;-5.50;95.20
3069;DHT22;1545;51.728;8.796;2022-12-18T05:18:18;-5.60;95.50
3069;DHT22;1545;51.728;8.796;2022-12-18T05:20:43;-5.50;96.00
3069;DHT22;1545;51.728;8.796;2022-12-18T05:23:09;-5.50;96.20
3069;DHT22;1545;51.728;8.796;2022-12-18T05:25:34;-5.30;96.60
3069;DHT22;1545;51.728;8.796;2022-12-18T05:28:00;-5.20;96.70
3069;DHT22;1545;51.728;8.796;2022-12-18T05:30:26;-5.10;96.40
3069;DHT22;1545;51.728;8.796;2022-12-18T05:32:51;-5.10;96.20
3069;DHT22;1545;51.728;8.796;2022-12-18T05:35:17;-5.00;95.90
3069;DHT22;1545;51.728;8.796;2022-12-18T05:37:42;-5.00;95.70
3069;DHT22;1545;51.728;8.796;2022-12-18T05:40:08;-4.80;95.80
3069;DHT22;1545;51.728;8.796;2022-12-18T05:42:34;-4.60;95.70
3069;DHT22;1545;51.728;8.796;2022-12-18T05:45:00;-4.50;95.40
3069;DHT22;1545;51.728;8.796;2022-12-18T05:47:26;-4.30;94.90
3069;DHT22;1545;51.728;8.796;2022-12-18T05:49:52;-4.20;94.60
3069;DHT22;1545;51.728;8.796;2022-12-18T05:52:17;-4.00;94.30
3069;DHT22;1545;51.728;8.796;2022-12-18T05:54:43;-4.00;93.90
3069;DHT22;1545;51.728;8.796;2022-12-18T05:57:08;-3.90;93.50
3069;DHT22;1545;51.728;8.796;2022-12-18T05:59:34;-3.90;93.60
3069;DHT22;1545;51.728;8.796;2022-12-18T06:01:59;-3.70;93.10
3069;DHT22;1545;51.728;8.796;2022-12-18T06:04:27;-3.70;92.80
3069;DHT22;1545;51.728;8.796;2022-12-18T06:06:55;-3.60;92.70
3069;DHT22;1545;51.728;8.796;2022-12-18T06:09:20;-3.60;92.50
3069;DHT22;1545;51.728;8.796;2022-12-18T06:11:46;-3.60;92.30
3069;DHT22;1545;51.728;8.796;2022-12-18T06:14:12;-3.70;92.30
3069;DHT22;1545;51.728;8.796;2022-12-18T06:16:37;-3.80;92.40
3069;DHT22;1545;51.728;8.796;2022-12-18T06:19:04;-3.80;92.70
3069;DHT22;1545;51.728;8.796;2022-12-18T06:21:31;-3.90;92.80
3069;DHT22;1545;51.728;8.796;2022-12-18T06:23:57;-4.00;92.90
3069;DHT22;1545;51.728;8.796;2022-12-18T06:26:23;-4.00;93.00
3069;DHT22;1545;51.728;8.796;2022-12-18T06:28:48;-3.90;93.00
3069;DHT22;1545;51.728;8.796;2022-12-18T06:31:14;-3.90;92.80
3069;DHT22;1545;51.728;8.796;2022-12-18T06:33:40;-3.90;92.70
3069;DHT22;1545;51.728;8.796;2022-12-18T06:36:08;-3.90;92.60
3069;DHT22;1545;51.728;8.796;2022-12-18T06:38:36;-3.90;92.60
3069;DHT22;1545;51.728;8.796;2022-12-18T06:41:16;-4.00;92.60
3069;DHT22;1545;51.728;8.796;2022-12-18T06:43:43;-4.00;92.60
3069;DHT22;1545;51.728;8.796;2022-12-18T06:46:09;-4.00;92.50
3069;DHT22;1545;51.728;8.796;2022-12-18T06:48:35;-4.00;92.60
3069;DHT22;1545;51.728;8.796;2022-12-18T06:51:01;-4.00;92.70
3069;DHT22;1545;51.728;8.796;2022-12-18T06:53:27;-4.00;92.70
3069;DHT22;1545;51.728;8.796;2022-12-18T06:55:59;-4.10;92.70
3069;DHT22;1545;51.728;8.796;2022-12-18T06:58:24;-4.10;92.60
3069;DHT22;1545;51.728;8.796;2022-12-18T07:00:50;-4.10;92.70
3069;DHT22;1545;51.728;8.796;2022-12-18T07:03:15;-4.20;92.70
3069;DHT22;1545;51.728;8.796;2022-12-18T07:05:41;-4.20;93.00
3069;DHT22;1545;51.728;8.796;2022-12-18T07:08:07;-4.20;93.00
3069;DHT22;1545;51.728;8.796;2022-12-18T07:10:32;-4.20;92.70
3069;DHT22;1545;51.728;8.796;2022-12-18T07:12:58;-4.20;92.70
3069;DHT22;1545;51.728;8.796;2022-12-18T07:15:23;-4.30;92.70
3069;DHT22;1545;51.728;8.796;2022-12-18T07:17:49;-4.30;92.90
3069;DHT22;1545;51.728;8.796;2022-12-18T07:20:14;-4.30;93.00
3069;DHT22;1545;51.728;8.796;2022-12-18T07:22:40;-4.30;92.70
3069;DHT22;1545;51.728;8.796;2022-12-18T07:25:06;-4.40;92.90
3069;DHT22;1545;51.728;8.796;2022-12-18T07:27:32;-4.40;93.00
3069;DHT22;1545;51.728;8.796;2022-12-18T07:29:57;-4.40;93.00
3069;DHT22;1545;51.728;8.796;2022-12-18T07:32:23;-4.40;93.00
3069;DHT22;1545;51.728;8.796;2022-12-18T07:34:48;-4.30;93.20
3069;DHT22;1545;51.728;8.796;2022-12-18T07:37:14;-4.40;93.10
3069;DHT22;1545;51.728;8.796;2022-12-18T07:39:40;-4.30;93.00
3069;DHT22;1545;51.728;8.796;2022-12-18T07:42:05;-4.30;93.10
3069;DHT22;1545;51.728;8.796;2022-12-18T07:44:49;-4.30;93.00
3069;DHT22;1545;51.728;8.796;2022-12-18T07:47:15;-4.30;93.10
3069;DHT22;1545;51.728;8.796;2022-12-18T07:49:40;-4.30;92.90
3069;DHT22;1545;51.728;8.796;2022-12-18T07:52:06;-4.40;93.00
3069;DHT22;1545;51.728;8.796;2022-12-18T07:54:31;-4.50;93.10
3069;DHT22;1545;51.728;8.796;2022-12-18T07:56:57;-4.60;93.30
3069;DHT22;1545;51.728;8.796;2022-12-18T07:59:22;-4.60;93.40
3069;DHT22;1545;51.728;8.796;2022-12-18T08:01:48;-4.60;93.50
3069;DHT22;1545;51.728;8.796;2022-12-18T08:04:13;-4.60;93.60
3069;DHT22;1545;51.728;8.796;2022-12-18T08:06:39;-4.60;93.70
3069;DHT22;1545;51.728;8.796;2022-12-18T08:09:04;-4.60;93.80
3069;DHT22;1545;51.728;8.796;2022-12-18T08:11:30;-4.60;93.70
3069;DHT22;1545;51.728;8.796;2022-12-18T08:13:57;-4.60;93.40
3069;DHT22;1545;51.728;8.796;2022-12-18T08:16:23;-4.60;93.30
3069;DHT22;1545;51.728;8.796;2022-12-18T08:18:49;-4.70;93.30
3069;DHT22;1545;51.728;8.796;2022-12-18T08:21:19;-4.70;93.40
3069;DHT22;1545;51.728;8.796;2022-12-18T08:23:46;-4.70;93.10
3069;DHT22;1545;51.728;8.796;2022-12-18T08:26:12;-4.60;93.40
3069;DHT22;1545;51.728;8.796;2022-12-18T08:28:38;-4.60;93.60
3069;DHT22;1545;51.728;8.796;2022-12-18T08:31:04;-4.50;93.40
3069;DHT22;1545;51.728;8.796;2022-12-18T08:33:30;-4.40;93.30
3069;DHT22;1545;51.728;8.796;2022-12-18T08:35:55;-4.40;93.20
3069;DHT22;1545;51.728;8.796;2022-12-18T08:38:21;-4.30;93.10
3069;DHT22;1545;51.728;8.796;2022-12-18T08:40:48;-4.30;93.00
3069;DHT22;1545;51.728;8.796;2022-12-18T08:43:13;-4.30;93.00
3069;DHT22;1545;51.728;8.796;2022-12-18T08:45:57;-4.30;92.70
3069;DHT22;1545;51.728;8.796;2022-12-18T08:48:23;-4.20;92.90
3069;DHT22;1545;51.728;8.796;2022-12-18T08:50:56;-4.20;92.70
3069;DHT22;1545;51.728;8.796;2022-12-18T08:53:22;-4.10;92.40
3069;DHT22;1545;51.728;8.796;2022-12-18T08:55:50;-4.10;92.30
3069;DHT22;1545;51.728;8.796;2022-12-18T08:58:16;-4.10;92.50
3069;DHT22;1545;51.728;8.796;2022-12-18T09:00:41;-4.00;92.40
3069;DHT22;1545;51.728;8.796;2022-12-18T09:03:14;-4.00;92.00
3069;DHT22;1545;51.728;8.796;2022-12-18T09:05:40;-4.00;92.00
3069;DHT22;1545;51.728;8.796;2022-12-18T09:08:06;-4.00;91.90
3069;DHT22;1545;51.728;8.796;2022-12-18T09:10:32;-3.90;91.90
3069;DHT22;1545;51.728;8.796;2022-12-18T09:12:57;-3.80;91.60
3069;DHT22;1545;51.728;8.796;2022-12-18T09:15:23;-3.70;91.70
3069;DHT22;1545;51.728;8.796;2022-12-18T09:17:48;-3.60;91.50
3069;DHT22;1545;51.728;8.796;2022-12-18T09:20:15;-3.50;91.60
3069;DHT22;1545;51.728;8.796;2022-12-18T09:22:41;-3.40;91.40
3069;DHT22;1545;51.728;8.796;2022-12-18T09:25:07;-3.30;91.10
3069;DHT22;1545;51.728;8.796;2022-12-18T09:27:33;-3.30;91.30
3069;DHT22;1545;51.728;8.796;2022-12-18T09:29:59;-3.20;91.00
3069;DHT22;1545;51.728;8.796;2022-12-18T09:32:25;-3.10;90.80
3069;DHT22;1545;51.728;8.796;2022-12-18T09:34:50;-3.00;90.50
3069;DHT22;1545;51.728;8.796;2022-12-18T09:37:16;-2.90;90.10
3069;DHT22;1545;51.728;8.796;2022-12-18T09:39:41;-2.90;90.20
3069;DHT22;1545;51.728;8.796;2022-12-18T09:42:16;-2.80;90.00
3069;DHT22;1545;51.728;8.796;2022-12-18T09:44:45;-2.70;89.50
3069;DHT22;1545;51.728;8.796;2022-12-18T09:47:26;-2.60;89.70
3069;DHT22;1545;51.728;8.796;2022-12-18T09:50:00;-2.50;89.50
3069;DHT22;1545;51.728;8.796;2022-12-18T09:52:33;-2.40;88.90
3069;DHT22;1545;51.728;8.796;2022-12-18T09:55:42;-2.20;88.00
3069;DHT22;1545;51.728;8.796;2022-12-18T10:00:35;-2.00;87.80
3069;DHT22;1545;51.728;8.796;2022-12-18T10:03:09;-2.00;87.90
3069;DHT22;1545;51.728;8.796;2022-12-18T10:06:42;-2.00;87.50
3069;DHT22;1545;51.728;8.796;2022-12-18T10:08:51;-2.00;87.70
3069;DHT22;1545;51.728;8.796;2022-12-18T10:14:27;-1.80;87.50
3069;DHT22;1545;51.728;8.796;2022-12-18T10:17:07;-1.80;87.40
3069;DHT22;1545;51.728;8.796;2022-12-18T10:19:44;-1.80;87.30
3069;DHT22;1545;51.728;8.796;2022-12-18T10:27:52;-1.70;87.30
3069;DHT22;1545;51.728;8.796;2022-12-18T10:30:20;-1.60;86.60
3069;DHT22;1545;51.728;8.796;2022-12-18T10:32:47;-1.50;86.00
3069;DHT22;1545;51.728;8.796;2022-12-18T10:35:23;-1.30;86.00
3069;DHT22;1545;51.728;8.796;2022-12-18T10:43:30;-1.40;86.20
3069;DHT22;1545;51.728;8.796;2022-12-18T10:48:47;-1.40;86.20
3069;DHT22;1545;51.728;8.796;2022-12-18T10:51:27;-1.30;86.00
3069;DHT22;1545;51.728;8.796;2022-12-18T10:54:05;-1.20;85.50
3069;DHT22;1545;51.728;8.796;2022-12-18T10:56:32;-1.00;85.00
3069;DHT22;1545;51.728;8.796;2022-12-18T10:59:00;-1.00;84.70
3069;DHT22;1545;51.728;8.796;2022-12-18T11:01:26;-1.00;83.70
3069;DHT22;1545;51.728;8.796;2022-12-18T11:06:23;-1.10;83.70
3069;DHT22;1545;51.728;8.796;2022-12-18T11:09:02;-1.00;83.30
3069;DHT22;1545;51.728;8.796;2022-12-18T11:11:28;-1.00;83.00
3069;DHT22;1545;51.728;8.796;2022-12-18T11:14:05;-1.00;83.50
3069;DHT22;1545;51.728;8.796;2022-12-18T11:16:42;-0.90;82.60
3069;DHT22;1545;51.728;8.796;2022-12-18T11:19:37;-0.90;82.70
3069;DHT22;1545;51.728;8.796;2022-12-18T11:27:40;-1.00;83.20
3069;DHT22;1545;51.728;8.796;2022-12-18T11:32:48;-0.90;82.50
3069;DHT22;1545;51.728;8.796;2022-12-18T11:35:42;-0.90;82.80
3069;DHT22;1545;51.728;8.796;2022-12-18T11:38:18;-0.80;82.30
3069;DHT22;1545;51.728;8.796;2022-12-18T11:40:50;-0.90;83.00
3069;DHT22;1545;51.728;8.796;2022-12-18T11:43:38;-0.90;83.60
3069;DHT22;1545;51.728;8.796;2022-12-18T11:46:37;-0.90;84.40
3069;DHT22;1545;51.728;8.796;2022-12-18T11:51:35;-0.70;82.80
3069;DHT22;1545;51.728;8.796;2022-12-18T11:54:12;-0.60;82.80
3069;DHT22;1545;51.728;8.796;2022-12-18T11:56:48;-0.60;81.40
3069;DHT22;1545;51.728;8.796;2022-12-18T12:15:38;-0.30;80.80
3069;DHT22;1545;51.728;8.796;2022-12-18T12:18:34;-0.30;80.70
3069;DHT22;1545;51.728;8.796;2022-12-18T12:21:39;-0.20;80.70
3069;DHT22;1545;51.728;8.796;2022-12-18T12:30:16;-0.20;79.70
3069;DHT22;1545;51.728;8.796;2022-12-18T12:35:52;-0.10;79.30
3069;DHT22;1545;51.728;8.796;2022-12-18T12:41:00;-0.10;80.10
3069;DHT22;1545;51.728;8.796;2022-12-18T12:43:44;-0.10;80.00
3069;DHT22;1545;51.728;8.796;2022-12-18T12:46:14;-0.10;80.20
3069;DHT22;1545;51.728;8.796;2022-12-18T12:48:51;-0.10;81.10
3069;DHT22;1545;51.728;8.796;2022-12-18T12:51:20;0.00;80.40
3069;DHT22;1545;51.728;8.796;2022-12-18T12:53:47;0.00;79.90
3069;DHT22;1545;51.728;8.796;2022-12-18T12:56:17;0.00;79.80
3069;DHT22;1545;51.728;8.796;2022-12-18T12:59:02;0.00;79.50
3069;DHT22;1545;51.728;8.796;2022-12-18T13:04:23;0.00;80.30
3069;DHT22;1545;51.728;8.796;2022-12-18T13:07:20;0.10;79.90
3069;DHT22;1545;51.728;8.796;2022-12-18T13:12:36;0.00;81.30
3069;DHT22;1545;51.728;8.796;2022-12-18T13:20:38;0.10;78.90
3069;DHT22;1545;51.728;8.796;2022-12-18T13:36:37;0.00;79.00
3069;DHT22;1545;51.728;8.796;2022-12-18T13:39:25;0.00;79.80
3069;DHT22;1545;51.728;8.796;2022-12-18T13:44:40;0.00;80.10
3069;DHT22;1545;51.728;8.796;2022-12-18T13:47:31;-0.10;80.60
3069;DHT22;1545;51.728;8.796;2022-12-18T13:49:57;-0.10;79.90
3069;DHT22;1545;51.728;8.796;2022-12-18T13:52:33;-0.10;79.90
3069;DHT22;1545;51.728;8.796;2022-12-18T13:55:02;-0.20;80.20
3069;DHT22;1545;51.728;8.796;2022-12-18T13:57:37;-0.20;80.60
3069;DHT22;1545;51.728;8.796;2022-12-18T14:02:50;-0.30;81.00
3069;DHT22;1545;51.728;8.796;2022-12-18T14:05:32;-0.30;81.10
3069;DHT22;1545;51.728;8.796;2022-12-18T14:08:05;-0.40;81.50
3069;DHT22;1545;51.728;8.796;2022-12-18T14:10:32;-0.40;81.60
3069;DHT22;1545;51.728;8.796;2022-12-18T14:13:05;-0.50;81.90
3069;DHT22;1545;51.728;8.796;2022-12-18T14:15:38;-0.60;82.60
3069;DHT22;1545;51.728;8.796;2022-12-18T14:18:20;-0.50;82.00
3069;DHT22;1545;51.728;8.796;2022-12-18T14:20:48;-0.60;82.70
3069;DHT22;1545;51.728;8.796;2022-12-18T14:23:27;-0.70;82.50
3069;DHT22;1545;51.728;8.796;2022-12-18T14:25:53;-0.70;82.10
3069;DHT22;1545;51.728;8.796;2022-12-18T14:28:18;-0.80;82.70
3069;DHT22;1545;51.728;8.796;2022-12-18T14:30:45;-0.80;82.70
3069;DHT22;1545;51.728;8.796;2022-12-18T14:33:16;-0.80;82.60
3069;DHT22;1545;51.728;8.796;2022-12-18T14:36:03;-0.90;82.80
3069;DHT22;1545;51.728;8.796;2022-12-18T14:38:33;-0.90;83.00
3069;DHT22;1545;51.728;8.796;2022-12-18T14:43:33;-1.00;83.20
3069;DHT22;1545;51.728;8.796;2022-12-18T14:46:00;-1.00;83.30
3069;DHT22;1545;51.728;8.796;2022-12-18T14:48:40;-1.00;83.30
3069;DHT22;1545;51.728;8.796;2022-12-18T14:51:12;-1.10;83.30
3069;DHT22;1545;51.728;8.796;2022-12-18T14:53:45;-1.10;83.70
3069;DHT22;1545;51.728;8.796;2022-12-18T14:56:20;-1.10;83.70
3069;DHT22;1545;51.728;8.796;2022-12-18T14:59:01;-1.10;83.30
3069;DHT22;1545;51.728;8.796;2022-12-18T15:01:33;-1.10;83.20
3069;DHT22;1545;51.728;8.796;2022-12-18T15:04:00;-1.10;83.60
3069;DHT22;1545;51.728;8.796;2022-12-18T15:06:37;-1.10;83.30
3069;DHT22;1545;51.728;8.796;2022-12-18T15:09:24;-1.20;83.80
3069;DHT22;1545;51.728;8.796;2022-12-18T15:11:57;-1.20;83.70
3069;DHT22;1545;51.728;8.796;2022-12-18T15:14:40;-1.10;83.40
3069;DHT22;1545;51.728;8.796;2022-12-18T15:17:20;-1.20;84.00
3069;DHT22;1545;51.728;8.796;2022-12-18T15:19:48;-1.20;83.50
3069;DHT22;1545;51.728;8.796;2022-12-18T15:22:26;-1.20;83.80
3069;DHT22;1545;51.728;8.796;2022-12-18T15:24:53;-1.20;83.50
3069;DHT22;1545;51.728;8.796;2022-12-18T15:27:34;-1.10;83.80
3069;DHT22;1545;51.728;8.796;2022-12-18T15:32:36;-1.10;83.80
3069;DHT22;1545;51.728;8.796;2022-12-18T15:37:29;-1.10;83.50
3069;DHT22;1545;51.728;8.796;2022-12-18T15:39:54;-1.10;83.40
3069;DHT22;1545;51.728;8.796;2022-12-18T15:42:20;-1.10;83.50
3069;DHT22;1545;51.728;8.796;2022-12-18T15:45:04;-1.10;83.40
3069;DHT22;1545;51.728;8.796;2022-12-18T15:47:30;-1.10;83.70
3069;DHT22;1545;51.728;8.796;2022-12-18T15:49:57;-1.10;83.60
3069;DHT22;1545;51.728;8.796;2022-12-18T15:52:22;-1.00;83.30
3069;DHT22;1545;51.728;8.796;2022-12-18T15:54:51;-1.10;83.80
3069;DHT22;1545;51.728;8.796;2022-12-18T15:57:35;-1.10;84.00
3069;DHT22;1545;51.728;8.796;2022-12-18T16:00:01;-1.10;83.80
3069;DHT22;1545;51.728;8.796;2022-12-18T16:02:27;-1.10;83.50
3069;DHT22;1545;51.728;8.796;2022-12-18T16:04:53;-1.10;83.70
3069;DHT22;1545;51.728;8.796;2022-12-18T16:07:20;-1.20;83.80
3069;DHT22;1545;51.728;8.796;2022-12-18T16:09:45;-1.20;84.10
3069;DHT22;1545;51.728;8.796;2022-12-18T16:12:21;-1.20;83.90
3069;DHT22;1545;51.728;8.796;2022-12-18T16:14:47;-1.20;84.20
3069;DHT22;1545;51.728;8.796;2022-12-18T16:17:14;-1.30;84.60
3069;DHT22;1545;51.728;8.796;2022-12-18T16:19:43;-1.30;84.50
3069;DHT22;1545;51.728;8.796;2022-12-18T16:22:23;-1.30;84.20
3069;DHT22;1545;51.728;8.796;2022-12-18T16:24:50;-1.30;84.10
3069;DHT22;1545;51.728;8.796;2022-12-18T16:27:17;-1.20;84.10
3069;DHT22;1545;51.728;8.796;2022-12-18T16:29:42;-1.20;84.10
3069;DHT22;1545;51.728;8.796;2022-12-18T16:32:17;-1.20;84.10
3069;DHT22;1545;51.728;8.796;2022-12-18T16:34:44;-1.20;84.30
3069;DHT22;1545;51.728;8.796;2022-12-18T16:37:11;-1.20;84.30
3069;DHT22;1545;51.728;8.796;2022-12-18T16:39:38;-1.30;84.40
3069;DHT22;1545;51.728;8.796;2022-12-18T16:42:14;-1.30;84.50
3069;DHT22;1545;51.728;8.796;2022-12-18T16:44:42;-1.30;84.60
3069;DHT22;1545;51.728;8.796;2022-12-18T16:47:08;-1.20;84.30
3069;DHT22;1545;51.728;8.796;2022-12-18T16:49:33;-1.20;84.20
3069;DHT22;1545;51.728;8.796;2022-12-18T16:51:59;-1.30;84.50
3069;DHT22;1545;51.728;8.796;2022-12-18T16:54:24;-1.30;84.50
3069;DHT22;1545;51.728;8.796;2022-12-18T16:56:51;-1.30;84.70
3069;DHT22;1545;51.728;8.796;2022-12-18T16:59:17;-1.30;84.80
3069;DHT22;1545;51.728;8.796;2022-12-18T17:01:43;-1.30;84.80
3069;DHT22;1545;51.728;8.796;2022-12-18T17:04:08;-1.40;85.10
3069;DHT22;1545;51.728;8.796;2022-12-18T17:06:38;-1.40;84.80
3069;DHT22;1545;51.728;8.796;2022-12-18T17:09:06;-1.40;84.70
3069;DHT22;1545;51.728;8.796;2022-12-18T17:11:33;-1.50;85.00
3069;DHT22;1545;51.728;8.796;2022-12-18T17:14:05;-1.50;85.40
3069;DHT22;1545;51.728;8.796;2022-12-18T17:16:31;-1.50;85.50
3069;DHT22;1545;51.728;8.796;2022-12-18T17:18:56;-1.50;85.40
3069;DHT22;1545;51.728;8.796;2022-12-18T17:21:22;-1.50;85.40
3069;DHT22;1545;51.728;8.796;2022-12-18T17:23:47;-1.50;85.20
3069;DHT22;1545;51.728;8.796;2022-12-18T17:26:13;-1.50;85.60
3069;DHT22;1545;51.728;8.796;2022-12-18T17:28:39;-1.60;85.30
3069;DHT22;1545;51.728;8.796;2022-12-18T17:31:17;-1.60;85.30
3069;DHT22;1545;51.728;8.796;2022-12-18T17:33:43;-1.60;85.40
3069;DHT22;1545;51.728;8.796;2022-12-18T17:36:09;-1.60;85.40
3069;DHT22;1545;51.728;8.796;2022-12-18T17:38:36;-1.60;85.50
3069;DHT22;1545;51.728;8.796;2022-12-18T17:41:06;-1.70;85.50
3069;DHT22;1545;51.728;8.796;2022-12-18T17:43:33;-1.60;85.20
3069;DHT22;1545;51.728;8.796;2022-12-18T17:46:14;-1.70;85.20
3069;DHT22;1545;51.728;8.796;2022-12-18T17:48:40;-1.70;85.30
3069;DHT22;1545;51.728;8.796;2022-12-18T17:51:09;-1.70;85.30
3069;DHT22;1545;51.728;8.796;2022-12-18T17:53:36;-1.70;85.30
3069;DHT22;1545;51.728;8.796;2022-12-18T17:56:03;-1.80;85.40
3069;DHT22;1545;51.728;8.796;2022-12-18T17:58:31;-1.80;85.60
3069;DHT22;1545;51.728;8.796;2022-12-18T18:00:57;-1.70;85.40
3069;DHT22;1545;51.728;8.796;2022-12-18T18:03:22;-1.70;85.50
3069;DHT22;1545;51.728;8.796;2022-12-18T18:05:48;-1.70;85.30
3069;DHT22;1545;51.728;8.796;2022-12-18T18:08:13;-1.70;85.40
3069;DHT22;1545;51.728;8.796;2022-12-18T18:10:39;-1.70;85.30
3069;DHT22;1545;51.728;8.796;2022-12-18T18:13:06;-1.70;85.40
3069;DHT22;1545;51.728;8.796;2022-12-18T18:15:57;-1.80;85.60
3069;DHT22;1545;51.728;8.796;2022-12-18T18:18:23;-1.70;85.70
3069;DHT22;1545;51.728;8.796;2022-12-18T18:20:49;-1.70;85.50
3069;DHT22;1545;51.728;8.796;2022-12-18T18:23:15;-1.80;85.40
3069;DHT22;1545;51.728;8.796;2022-12-18T18:25:41;-1.80;85.60
3069;DHT22;1545;51.728;8.796;2022-12-18T18:28:06;-1.90;85.70
3069;DHT22;1545;51.728;8.796;2022-12-18T18:30:32;-1.80;85.90